sensor_id;sensor_type;location;lat;lon;timestamp;pressure;altitude;pressure_sealevel;temperature;humidity
6204;BME280;3135;42.602;23.468;2023-04-08T00:00:19;92584.38;;;1.93;100.00
6204;BME280;3135;42.602;23.468;2023-04-08T00:02:45;92572.09;;;1.99;100.00
6204;BME280;3135;42.602;23.468;2023-04-08T00:05:13;92571.13;;;1.88;100.00
6204;BME280;3135;42.602;23.468;2023-04-08T00:07:38;92575.13;;;1.74;100.00
6204;BME280;3135;42.602;23.468;2023-04-08T00:10:04;92566.66;;;1.89;100.00
6204;BME280;3135;42.602;23.468;2023-04-08T00:12:31;92580.84;;;2.04;100.00
6204;BME280;3135;42.602;23.468;2023-04-08T00:14:56;92564.97;;;1.99;100.00
6204;BME280;3135;42.602;23.468;2023-04-08T00:17:22;92575.44;;;1.77;100.00
6204;BME280;3135;42.602;23.468;2023-04-08T00:19:47;92573.59;;;1.78;100.00
6204;BME280;3135;42.602;23.468;2023-04-08T00:22:13;92570.69;;;1.74;100.00
6204;BME280;3135;42.602;23.468;2023-04-08T00:24:38;92585.19;;;1.77;100.00
6204;BME280;3135;42.602;23.468;2023-04-08T00:27:05;92582.28;;;1.95;100.00
6204;BME280;3135;42.602;23.468;2023-04-08T00:29:30;92587.75;;;1.89;100.00
6204;BME280;3135;42.602;23.468;2023-04-08T00:31:56;92570.78;;;2.01;100.00
6204;BME280;3135;42.602;23.468;2023-04-08T00:34:22;92581.00;;;2.15;100.00
6204;BME280;3135;42.602;23.468;2023-04-08T00:36:47;92566.75;;;2.16;100.00
6204;BME280;3135;42.602;23.468;2023-04-08T00:39:13;92580.28;;;2.41;100.00
6204;BME280;3135;42.602;23.468;2023-04-08T00:41:39;92574.97;;;2.36;100.00
6204;BME280;3135;42.602;23.468;2023-04-08T00:44:04;92586.03;;;2.38;100.00
6204;BME280;3135;42.602;23.468;2023-04-08T00:46:34;92567.06;;;2.19;100.00
6204;BME280;3135;42.602;23.468;2023-04-08T00:49:00;92587.63;;;2.39;100.00
6204;BME280;3135;42.602;23.468;2023-04-08T00:51:28;92586.69;;;2.45;100.00
6204;BME280;3135;42.602;23.468;2023-04-08T00:53:53;92579.31;;;2.47;100.00
6204;BME280;3135;42.602;23.468;2023-04-08T00:56:19;92582.00;;;2.52;100.00
6204;BME280;3135;42.602;23.468;2023-04-08T00:58:46;92586.38;;;2.64;100.00
6204;BME280;3135;42.602;23.468;2023-04-08T01:06:40;92582.63;;;2.60;100.00
6204;BME280;3135;42.602;23.468;2023-04-08T01:09:11;92575.16;;;2.51;100.00
6204;BME280;3135;42.602;23.468;2023-04-08T01:11:41;92584.38;;;2.54;100.00
6204;BME280;3135;42.602;23.468;2023-04-08T01:14:08;92581.41;;;2.45;100.00
6204;BME280;3135;42.602;23.468;2023-04-08T01:16:38;92589.88;;;2.30;100.00
6204;BME280;3135;42.602;23.468;2023-04-08T01:19:07;92555.13;;;2.34;100.00
6204;BME280;3135;42.602;23.468;2023-04-08T01:21:34;92575.63;;;2.48;100.00
6204;BME280;3135;42.602;23.468;2023-04-08T01:24:13;92590.09;;;2.68;100.00
6204;BME280;3135;42.602;23.468;2023-04-08T01:26:42;92567.91;;;2.64;100.00
6204;BME280;3135;42.602;23.468;2023-04-08T01:29:08;92571.41;;;2.69;100.00
6204;BME280;3135;42.602;23.468;2023-04-08T01:31:35;92579.69;;;2.56;100.00
6204;BME280;3135;42.602;23.468;2023-04-08T01:34:02;92583.81;;;2.69;100.00
6204;BME280;3135;42.602;23.468;2023-04-08T01:36:31;92597.00;;;2.69;100.00
6204;BME280;3135;42.602;23.468;2023-04-08T01:38:59;92593.25;;;2.65;100.00
6204;BME280;3135;42.602;23.468;2023-04-08T01:41:26;92578.16;;;2.60;100.00
6204;BME280;3135;42.602;23.468;2023-04-08T01:43:54;92580.28;;;2.63;100.00
6204;BME280;3135;42.602;23.468;2023-04-08T01:46:20;92587.25;;;2.69;100.00
6204;BME280;3135;42.602;23.468;2023-04-08T01:48:46;92575.38;;;2.72;100.00
6204;BME280;3135;42.602;23.468;2023-04-08T01:51:13;92603.50;;;2.83;100.00
6204;BME280;3135;42.602;23.468;2023-04-08T01:53:39;92600.06;;;2.83;100.00
6204;BME280;3135;42.602;23.468;2023-04-08T01:56:09;92587.34;;;2.79;100.00
6204;BME280;3135;42.602;23.468;2023-04-08T01:58:40;92566.03;;;2.59;100.00
6204;BME280;3135;42.602;23.468;2023-04-08T02:01:11;92593.78;;;2.67;100.00
6204;BME280;3135;42.602;23.468;2023-04-08T02:03:40;92596.63;;;2.60;100.00
6204;BME280;3135;42.602;23.468;2023-04-08T02:06:06;92599.84;;;2.67;100.00
6204;BME280;3135;42.602;23.468;2023-04-08T02:08:35;92597.03;;;2.52;100.00
6204;BME280;3135;42.602;23.468;2023-04-08T02:11:01;92574.91;;;2.31;100.00
6204;BME280;3135;42.602;23.468;2023-04-08T02:13:30;92609.97;;;2.53;99.72
6204;BME280;3135;42.602;23.468;2023-04-08T02:16:07;92615.38;;;2.42;99.23
6204;BME280;3135;42.602;23.468;2023-04-08T02:18:36;92618.94;;;2.52;99.49
6204;BME280;3135;42.602;23.468;2023-04-08T02:21:10;92608.38;;;2.52;99.45
6204;BME280;3135;42.602;23.468;2023-04-08T02:23:38;92608.81;;;2.66;99.39
6204;BME280;3135;42.602;23.468;2023-04-08T02:26:08;92606.81;;;2.13;97.93
6204;BME280;3135;42.602;23.468;2023-04-08T02:28:38;92606.00;;;2.12;99.15
6204;BME280;3135;42.602;23.468;2023-04-08T02:31:08;92571.69;;;2.29;97.95
6204;BME280;3135;42.602;23.468;2023-04-08T02:33:35;92598.94;;;2.56;98.20
6204;BME280;3135;42.602;23.468;2023-04-08T02:36:03;92612.88;;;2.74;98.42
6204;BME280;3135;42.602;23.468;2023-04-08T02:38:29;92602.06;;;2.75;99.15
6204;BME280;3135;42.602;23.468;2023-04-08T02:40:55;92596.84;;;2.59;100.00
6204;BME280;3135;42.602;23.468;2023-04-08T02:43:21;92606.97;;;2.67;100.00
6204;BME280;3135;42.602;23.468;2023-04-08T02:45:51;92607.97;;;2.61;100.00
6204;BME280;3135;42.602;23.468;2023-04-08T02:48:16;92595.00;;;2.37;100.00
6204;BME280;3135;42.602;23.468;2023-04-08T02:50:42;92532.72;;;1.92;100.00
6204;BME280;3135;42.602;23.468;2023-04-08T02:53:07;92523.19;;;2.08;99.97
6204;BME280;3135;42.602;23.468;2023-04-08T02:55:33;92585.22;;;2.54;100.00
6204;BME280;3135;42.602;23.468;2023-04-08T02:57:58;92601.91;;;2.60;100.00
6204;BME280;3135;42.602;23.468;2023-04-08T03:00:24;92618.38;;;2.72;100.00
6204;BME280;3135;42.602;23.468;2023-04-08T03:02:49;92582.44;;;2.66;100.00
6204;BME280;3135;42.602;23.468;2023-04-08T03:05:15;92593.56;;;2.68;98.53
6204;BME280;3135;42.602;23.468;2023-04-08T03:07:41;92606.97;;;2.67;99.96
6204;BME280;3135;42.602;23.468;2023-04-08T03:10:07;92580.97;;;2.53;99.98
6204;BME280;3135;42.602;23.468;2023-04-08T03:12:32;92625.16;;;2.85;99.37
6204;BME280;3135;42.602;23.468;2023-04-08T03:14:58;92613.00;;;2.84;99.71
6204;BME280;3135;42.602;23.468;2023-04-08T03:17:23;92599.19;;;2.77;98.68
6204;BME280;3135;42.602;23.468;2023-04-08T03:19:49;92615.69;;;2.89;98.74
6204;BME280;3135;42.602;23.468;2023-04-08T03:22:14;92596.22;;;2.95;99.31
6204;BME280;3135;42.602;23.468;2023-04-08T03:24:40;92586.56;;;2.79;98.70
6204;BME280;3135;42.602;23.468;2023-04-08T03:27:06;92617.97;;;3.02;98.69
6204;BME280;3135;42.602;23.468;2023-04-08T03:29:32;92611.53;;;2.93;100.00
6204;BME280;3135;42.602;23.468;2023-04-08T03:31:58;92607.03;;;2.94;99.89
6204;BME280;3135;42.602;23.468;2023-04-08T03:34:23;92603.53;;;2.66;100.00
6204;BME280;3135;42.602;23.468;2023-04-08T03:36:48;92599.63;;;2.69;100.00
6204;BME280;3135;42.602;23.468;2023-04-08T03:39:14;92608.47;;;2.79;100.00
6204;BME280;3135;42.602;23.468;2023-04-08T03:41:39;92616.19;;;2.86;100.00
6204;BME280;3135;42.602;23.468;2023-04-08T03:44:05;92595.69;;;2.71;100.00
6204;BME280;3135;42.602;23.468;2023-04-08T03:46:30;92611.16;;;2.85;100.00
6204;BME280;3135;42.602;23.468;2023-04-08T03:48:56;92604.97;;;2.74;100.00
6204;BME280;3135;42.602;23.468;2023-04-08T03:51:21;92607.56;;;2.69;100.00
6204;BME280;3135;42.602;23.468;2023-04-08T03:53:47;92597.28;;;2.72;99.35
6204;BME280;3135;42.602;23.468;2023-04-08T03:56:13;92607.03;;;2.72;99.62
6204;BME280;3135;42.602;23.468;2023-04-08T03:58:38;92593.78;;;2.67;100.00
6204;BME280;3135;42.602;23.468;2023-04-08T04:01:04;92595.44;;;2.73;99.18
6204;BME280;3135;42.602;23.468;2023-04-08T04:03:30;92613.78;;;2.85;99.40
6204;BME280;3135;42.602;23.468;2023-04-08T04:05:55;92597.91;;;2.79;99.64
6204;BME280;3135;42.602;23.468;2023-04-08T04:08:21;92597.91;;;2.79;100.00
6204;BME280;3135;42.602;23.468;2023-04-08T04:10:46;92599.81;;;2.84;100.00
6204;BME280;3135;42.602;23.468;2023-04-08T04:13:12;92593.91;;;2.77;99.75
6204;BME280;3135;42.602;23.468;2023-04-08T04:15:38;92599.81;;;2.84;100.00
6204;BME280;3135;42.602;23.468;2023-04-08T04:18:05;92606.19;;;2.88;98.01
6204;BME280;3135;42.602;23.468;2023-04-08T04:20:30;92615.16;;;2.87;100.00
6204;BME280;3135;42.602;23.468;2023-04-08T04:22:56;92620.72;;;2.91;99.79
6204;BME280;3135;42.602;23.468;2023-04-08T04:25:21;92612.44;;;2.82;100.00
6204;BME280;3135;42.602;23.468;2023-04-08T04:27:47;92600.72;;;2.51;100.00
6204;BME280;3135;42.602;23.468;2023-04-08T04:30:12;92594.03;;;2.43;100.00
6204;BME280;3135;42.602;23.468;2023-04-08T04:32:40;92609.97;;;2.53;100.00
6204;BME280;3135;42.602;23.468;2023-04-08T04:35:10;92627.75;;;2.41;100.00
6204;BME280;3135;42.602;23.468;2023-04-08T04:37:35;92606.88;;;2.18;100.00
6204;BME280;3135;42.602;23.468;2023-04-08T04:40:02;92599.19;;;2.16;100.00
6204;BME280;3135;42.602;23.468;2023-04-08T04:42:27;92582.63;;;1.82;100.00
6204;BME280;3135;42.602;23.468;2023-04-08T04:44:53;92592.75;;;1.90;100.00
6204;BME280;3135;42.602;23.468;2023-04-08T04:47:18;92587.38;;;2.02;100.00
6204;BME280;3135;42.602;23.468;2023-04-08T04:49:44;92586.84;;;2.00;100.00
6204;BME280;3135;42.602;23.468;2023-04-08T04:52:10;92602.91;;;1.98;100.00
6204;BME280;3135;42.602;23.468;2023-04-08T04:54:35;92615.03;;;1.99;100.00
6204;BME280;3135;42.602;23.468;2023-04-08T04:57:01;92604.50;;;1.99;100.00
6204;BME280;3135;42.602;23.468;2023-04-08T04:59:26;92606.94;;;2.06;100.00
6204;BME280;3135;42.602;23.468;2023-04-08T05:01:52;92604.09;;;2.08;100.00
6204;BME280;3135;42.602;23.468;2023-04-08T05:04:17;92608.94;;;2.16;100.00
6204;BME280;3135;42.602;23.468;2023-04-08T05:06:42;92624.41;;;2.29;100.00
6204;BME280;3135;42.602;23.468;2023-04-08T05:09:08;92589.16;;;2.13;100.00
6204;BME280;3135;42.602;23.468;2023-04-08T05:11:33;92614.44;;;2.31;100.00
6204;BME280;3135;42.602;23.468;2023-04-08T05:13:59;92584.59;;;2.09;100.00
6204;BME280;3135;42.602;23.468;2023-04-08T05:16:24;92618.66;;;2.32;100.00
6204;BME280;3135;42.602;23.468;2023-04-08T05:18:50;92613.41;;;2.32;100.00
6204;BME280;3135;42.602;23.468;2023-04-08T05:21:15;92623.59;;;2.45;100.00
6204;BME280;3135;42.602;23.468;2023-04-08T05:23:41;92622.63;;;2.51;100.00
6204;BME280;3135;42.602;23.468;2023-04-08T05:26:07;92616.16;;;2.42;100.00
6204;BME280;3135;42.602;23.468;2023-04-08T05:28:33;92610.47;;;2.50;100.00
6204;BME280;3135;42.602;23.468;2023-04-08T05:30:58;92597.91;;;2.36;100.00
6204;BME280;3135;42.602;23.468;2023-04-08T05:33:24;92609.97;;;2.53;100.00
6204;BME280;3135;42.602;23.468;2023-04-08T05:35:50;92602.28;;;2.69;100.00
6204;BME280;3135;42.602;23.468;2023-04-08T05:38:17;92599.06;;;2.67;100.00
6204;BME280;3135;42.602;23.468;2023-04-08T05:40:42;92610.47;;;2.72;100.00
6204;BME280;3135;42.602;23.468;2023-04-08T05:43:07;92610.72;;;2.93;100.00
6204;BME280;3135;42.602;23.468;2023-04-08T05:45:33;92612.84;;;3.18;100.00
6204;BME280;3135;42.602;23.468;2023-04-08T05:47:58;92613.59;;;3.40;100.00
6204;BME280;3135;42.602;23.468;2023-04-08T05:50:24;92617.69;;;3.53;100.00
6204;BME280;3135;42.602;23.468;2023-04-08T05:52:49;92608.53;;;3.66;100.00
6204;BME280;3135;42.602;23.468;2023-04-08T05:55:15;92594.13;;;3.78;100.00
6204;BME280;3135;42.602;23.468;2023-04-08T05:57:40;92630.78;;;4.02;100.00
6204;BME280;3135;42.602;23.468;2023-04-08T06:00:07;92610.56;;;3.85;100.00
6204;BME280;3135;42.602;23.468;2023-04-08T06:02:34;92623.63;;;3.97;100.00
6204;BME280;3135;42.602;23.468;2023-04-08T06:05:00;92625.44;;;4.29;100.00
6204;BME280;3135;42.602;23.468;2023-04-08T06:07:26;92617.94;;;4.16;100.00
6204;BME280;3135;42.602;23.468;2023-04-08T06:09:51;92608.19;;;3.84;100.00
6204;BME280;3135;42.602;23.468;2023-04-08T06:12:17;92614.09;;;3.96;100.00
6204;BME280;3135;42.602;23.468;2023-04-08T06:14:42;92618.47;;;4.18;100.00
6204;BME280;3135;42.602;23.468;2023-04-08T06:17:08;92584.59;;;3.77;100.00
6204;BME280;3135;42.602;23.468;2023-04-08T06:19:33;92631.16;;;4.16;100.00
6204;BME280;3135;42.602;23.468;2023-04-08T06:21:59;92618.47;;;4.18;100.00
6204;BME280;3135;42.602;23.468;2023-04-08T06:24:25;92619.00;;;4.15;100.00
6204;BME280;3135;42.602;23.468;2023-04-08T06:26:52;92584.50;;;3.99;100.00
6204;BME280;3135;42.602;23.468;2023-04-08T06:29:18;92607.81;;;4.45;100.00
6204;BME280;3135;42.602;23.468;2023-04-08T06:31:43;92611.09;;;4.67;100.00
6204;BME280;3135;42.602;23.468;2023-04-08T06:34:09;92606.50;;;4.47;100.00
6204;BME280;3135;42.602;23.468;2023-04-08T06:36:34;92597.91;;;4.72;100.00
6204;BME280;3135;42.602;23.468;2023-04-08T06:39:00;92614.28;;;4.69;100.00
6204;BME280;3135;42.602;23.468;2023-04-08T06:41:26;92618.06;;;4.88;100.00
6204;BME280;3135;42.602;23.468;2023-04-08T06:43:51;92623.09;;;4.80;100.00
6204;BME280;3135;42.602;23.468;2023-04-08T06:46:17;92612.50;;;4.80;100.00
6204;BME280;3135;42.602;23.468;2023-04-08T06:48:42;92620.22;;;4.97;100.00
6204;BME280;3135;42.602;23.468;2023-04-08T06:51:08;92619.47;;;5.06;100.00
6204;BME280;3135;42.602;23.468;2023-04-08T06:53:33;92625.75;;;4.80;100.00
6204;BME280;3135;42.602;23.468;2023-04-08T06:55:59;92638.81;;;5.12;100.00
6204;BME280;3135;42.602;23.468;2023-04-08T06:58:24;92616.06;;;5.21;100.00
6204;BME280;3135;42.602;23.468;2023-04-08T07:00:50;92614.00;;;5.33;100.00
6204;BME280;3135;42.602;23.468;2023-04-08T07:03:17;92619.50;;;5.17;100.00
6204;BME280;3135;42.602;23.468;2023-04-08T07:05:43;92588.75;;;5.00;100.00
6204;BME280;3135;42.602;23.468;2023-04-08T07:08:08;92631.19;;;5.21;100.00
6204;BME280;3135;42.602;23.468;2023-04-08T07:10:34;92628.56;;;5.31;100.00
6204;BME280;3135;42.602;23.468;2023-04-08T07:13:00;92624.63;;;5.49;99.63
6204;BME280;3135;42.602;23.468;2023-04-08T07:15:25;92620.13;;;5.59;99.83
6204;BME280;3135;42.602;23.468;2023-04-08T07:17:51;92632.09;;;5.67;97.64
6204;BME280;3135;42.602;23.468;2023-04-08T07:20:16;92632.63;;;5.69;98.67
6204;BME280;3135;42.602;23.468;2023-04-08T07:22:42;92634.75;;;5.77;98.27
6204;BME280;3135;42.602;23.468;2023-04-08T07:25:08;92628.44;;;5.94;93.71
6204;BME280;3135;42.602;23.468;2023-04-08T07:27:33;92615.97;;;6.09;93.41
6204;BME280;3135;42.602;23.468;2023-04-08T07:29:59;92641.97;;;6.33;94.29
6204;BME280;3135;42.602;23.468;2023-04-08T07:32:25;92643.84;;;6.27;93.15
6204;BME280;3135;42.602;23.468;2023-04-08T07:34:51;92634.53;;;6.25;92.03
6204;BME280;3135;42.602;23.468;2023-04-08T07:37:17;92658.69;;;6.44;92.15
6204;BME280;3135;42.602;23.468;2023-04-08T07:39:42;92644.31;;;6.70;91.17
6204;BME280;3135;42.602;23.468;2023-04-08T07:42:08;92648.28;;;6.88;88.83
6204;BME280;3135;42.602;23.468;2023-04-08T07:44:33;92630.72;;;6.97;85.86
6204;BME280;3135;42.602;23.468;2023-04-08T07:46:59;92661.19;;;7.10;86.67
6204;BME280;3135;42.602;23.468;2023-04-08T07:49:24;92662.53;;;7.17;84.80
6204;BME280;3135;42.602;23.468;2023-04-08T07:51:50;92669.31;;;7.49;83.92
6204;BME280;3135;42.602;23.468;2023-04-08T07:54:15;92670.88;;;7.55;84.49
6204;BME280;3135;42.602;23.468;2023-04-08T07:56:42;92669.00;;;7.56;86.46
6204;BME280;3135;42.602;23.468;2023-04-08T07:59:09;92661.25;;;7.64;82.63
6204;BME280;3135;42.602;23.468;2023-04-08T08:01:35;92653.16;;;7.35;82.93
6204;BME280;3135;42.602;23.468;2023-04-08T08:04:00;92664.75;;;7.55;83.44
6204;BME280;3135;42.602;23.468;2023-04-08T08:06:26;92661.34;;;7.93;83.07
6204;BME280;3135;42.602;23.468;2023-04-08T08:08:56;92661.41;;;8.23;81.00
6204;BME280;3135;42.602;23.468;2023-04-08T08:11:22;92656.13;;;8.17;80.83
6204;BME280;3135;42.602;23.468;2023-04-08T08:13:47;92638.44;;;8.32;79.40
6204;BME280;3135;42.602;23.468;2023-04-08T08:16:13;92674.88;;;8.76;78.16
6204;BME280;3135;42.602;23.468;2023-04-08T08:18:39;92678.97;;;8.92;78.96
6204;BME280;3135;42.602;23.468;2023-04-08T08:21:05;92679.97;;;9.01;77.55
6204;BME280;3135;42.602;23.468;2023-04-08T08:23:31;92683.47;;;9.20;77.61
6204;BME280;3135;42.602;23.468;2023-04-08T08:26:07;92668.22;;;9.50;76.78
6204;BME280;3135;42.602;23.468;2023-04-08T08:28:37;92688.66;;;9.60;76.37
6204;BME280;3135;42.602;23.468;2023-04-08T08:31:02;92677.41;;;9.39;75.66
6204;BME280;3135;42.602;23.468;2023-04-08T08:33:28;92695.53;;;9.18;76.43
6204;BME280;3135;42.602;23.468;2023-04-08T08:35:53;92689.09;;;8.95;77.67
6204;BME280;3135;42.602;23.468;2023-04-08T08:38:20;92686.75;;;9.12;78.35
6204;BME280;3135;42.602;23.468;2023-04-08T08:40:45;92685.34;;;8.96;78.24
6204;BME280;3135;42.602;23.468;2023-04-08T08:43:11;92677.34;;;8.67;82.83
6204;BME280;3135;42.602;23.468;2023-04-08T08:45:40;92696.84;;;8.91;83.33
6204;BME280;3135;42.602;23.468;2023-04-08T08:48:06;92695.09;;;9.06;82.88
6204;BME280;3135;42.602;23.468;2023-04-08T08:50:33;92692.75;;;8.70;82.03
6204;BME280;3135;42.602;23.468;2023-04-08T08:52:59;92680.84;;;8.28;84.45
6204;BME280;3135;42.602;23.468;2023-04-08T08:55:25;92687.56;;;8.15;87.68
6204;BME280;3135;42.602;23.468;2023-04-08T08:57:50;92680.34;;;8.21;87.54
6204;BME280;3135;42.602;23.468;2023-04-08T09:00:16;92698.59;;;8.43;87.25
6204;BME280;3135;42.602;23.468;2023-04-08T09:02:42;92704.47;;;8.40;86.56
6204;BME280;3135;42.602;23.468;2023-04-08T09:05:08;92706.91;;;8.65;85.08
6204;BME280;3135;42.602;23.468;2023-04-08T09:07:37;92692.59;;;8.61;83.44
6204;BME280;3135;42.602;23.468;2023-04-08T09:10:07;92692.53;;;8.66;84.65
6204;BME280;3135;42.602;23.468;2023-04-08T09:12:32;92701.44;;;8.86;82.77
6204;BME280;3135;42.602;23.468;2023-04-08T09:15:04;92715.09;;;9.03;83.22
6204;BME280;3135;42.602;23.468;2023-04-08T09:17:35;92710.06;;;8.73;81.44
6204;BME280;3135;42.602;23.468;2023-04-08T09:20:09;92710.41;;;8.95;83.47
6204;BME280;3135;42.602;23.468;2023-04-08T09:25:31;92701.88;;;8.93;80.18
6204;BME280;3135;42.602;23.468;2023-04-08T09:27:57;92686.38;;;9.00;81.12
6204;BME280;3135;42.602;23.468;2023-04-08T09:30:25;92710.25;;;9.10;83.05
6204;BME280;3135;42.602;23.468;2023-04-08T09:32:57;92700.09;;;9.12;82.46
6204;BME280;3135;42.602;23.468;2023-04-08T09:35:23;92716.63;;;9.14;81.04
6204;BME280;3135;42.602;23.468;2023-04-08T09:37:50;92677.19;;;8.53;85.23
6204;BME280;3135;42.602;23.468;2023-04-08T09:40:16;92707.78;;;8.90;83.92
6204;BME280;3135;42.602;23.468;2023-04-08T09:42:46;92705.28;;;8.99;82.53
6204;BME280;3135;42.602;23.468;2023-04-08T09:45:17;92694.22;;;8.86;82.24
6204;BME280;3135;42.602;23.468;2023-04-08T09:50:42;92677.50;;;8.81;84.14
6204;BME280;3135;42.602;23.468;2023-04-08T09:53:19;92687.75;;;8.63;85.75
6204;BME280;3135;42.602;23.468;2023-04-08T09:55:54;92674.84;;;8.07;89.83
6204;BME280;3135;42.602;23.468;2023-04-08T09:58:35;92667.03;;;7.82;90.64
6204;BME280;3135;42.602;23.468;2023-04-08T10:01:03;92691.56;;;8.13;91.21
6204;BME280;3135;42.602;23.468;2023-04-08T10:03:34;92674.19;;;8.26;91.20
6204;BME280;3135;42.602;23.468;2023-04-08T10:06:02;92664.72;;;8.04;91.36
6204;BME280;3135;42.602;23.468;2023-04-08T10:08:29;92685.41;;;8.17;92.27
6204;BME280;3135;42.602;23.468;2023-04-08T10:10:55;92674.09;;;8.36;91.88
6204;BME280;3135;42.602;23.468;2023-04-08T10:13:22;92657.53;;;8.49;88.42
6204;BME280;3135;42.602;23.468;2023-04-08T10:15:48;92662.75;;;8.88;84.30
6204;BME280;3135;42.602;23.468;2023-04-08T10:23:14;92654.22;;;8.62;85.90
6204;BME280;3135;42.602;23.468;2023-04-08T10:25:47;92652.38;;;8.58;86.64
6204;BME280;3135;42.602;23.468;2023-04-08T10:33:21;92660.78;;;8.41;84.79
6204;BME280;3135;42.602;23.468;2023-04-08T10:35:48;92670.50;;;8.56;83.49
6204;BME280;3135;42.602;23.468;2023-04-08T10:38:18;92662.50;;;8.22;82.93
6204;BME280;3135;42.602;23.468;2023-04-08T10:40:44;92648.69;;;8.19;85.09
6204;BME280;3135;42.602;23.468;2023-04-08T10:43:11;92653.38;;;8.38;83.97
6204;BME280;3135;42.602;23.468;2023-04-08T10:45:41;92649.88;;;8.72;84.47
6204;BME280;3135;42.602;23.468;2023-04-08T10:50:37;92625.00;;;8.52;79.78
6204;BME280;3135;42.602;23.468;2023-04-08T10:53:03;92657.56;;;8.44;78.57
6204;BME280;3135;42.602;23.468;2023-04-08T10:55:29;92653.81;;;8.45;78.57
6204;BME280;3135;42.602;23.468;2023-04-08T10:58:04;92672.22;;;8.76;78.98
6204;BME280;3135;42.602;23.468;2023-04-08T11:00:35;92656.53;;;8.98;77.04
6204;BME280;3135;42.602;23.468;2023-04-08T11:03:09;92661.72;;;8.84;77.21
6204;BME280;3135;42.602;23.468;2023-04-08T11:05:37;92656.44;;;9.08;77.83
6204;BME280;3135;42.602;23.468;2023-04-08T11:08:03;92627.84;;;9.14;76.25
6204;BME280;3135;42.602;23.468;2023-04-08T11:10:29;92631.16;;;8.77;77.58
6204;BME280;3135;42.602;23.468;2023-04-08T11:12:55;92643.59;;;9.10;77.17
6204;BME280;3135;42.602;23.468;2023-04-08T11:15:23;92640.25;;;9.00;77.98
6204;BME280;3135;42.602;23.468;2023-04-08T11:17:50;92646.56;;;8.85;78.21
6204;BME280;3135;42.602;23.468;2023-04-08T11:20:16;92616.88;;;8.67;77.73
6204;BME280;3135;42.602;23.468;2023-04-08T11:22:43;92634.88;;;8.81;78.18
6204;BME280;3135;42.602;23.468;2023-04-08T11:25:09;92629.47;;;8.86;79.10
6204;BME280;3135;42.602;23.468;2023-04-08T11:27:36;92617.78;;;8.82;80.38
6204;BME280;3135;42.602;23.468;2023-04-08T11:30:02;92610.94;;;8.76;78.80
6204;BME280;3135;42.602;23.468;2023-04-08T11:32:30;92601.19;;;8.90;79.68
6204;BME280;3135;42.602;23.468;2023-04-08T11:34:55;92629.47;;;8.86;79.38
6204;BME280;3135;42.602;23.468;2023-04-08T11:37:24;92595.66;;;8.57;79.37
6204;BME280;3135;42.602;23.468;2023-04-08T11:39:50;92617.22;;;8.56;79.45
6204;BME280;3135;42.602;23.468;2023-04-08T11:42:29;92632.66;;;8.59;80.13
6204;BME280;3135;42.602;23.468;2023-04-08T11:44:55;92619.00;;;8.65;82.89
6204;BME280;3135;42.602;23.468;2023-04-08T11:47:21;92637.19;;;8.58;76.55
6204;BME280;3135;42.602;23.468;2023-04-08T11:49:47;92628.38;;;8.63;85.72
6204;BME280;3135;42.602;23.468;2023-04-08T11:52:13;92631.78;;;8.68;95.46
6204;BME280;3135;42.602;23.468;2023-04-08T11:54:42;92616.03;;;8.96;97.44
6204;BME280;3135;42.602;23.468;2023-04-08T11:57:08;92590.00;;;8.88;92.02
6204;BME280;3135;42.602;23.468;2023-04-08T11:59:37;92617.84;;;9.25;92.11
6204;BME280;3135;42.602;23.468;2023-04-08T12:02:02;92612.13;;;9.12;87.34
6204;BME280;3135;42.602;23.468;2023-04-08T12:04:28;92620.56;;;9.19;92.37
6204;BME280;3135;42.602;23.468;2023-04-08T12:06:54;92618.47;;;9.16;94.86
6204;BME280;3135;42.602;23.468;2023-04-08T12:09:20;92622.09;;;9.26;93.91
6204;BME280;3135;42.602;23.468;2023-04-08T12:11:46;92602.50;;;9.35;93.05
6204;BME280;3135;42.602;23.468;2023-04-08T12:14:11;92615.81;;;9.59;91.17
6204;BME280;3135;42.602;23.468;2023-04-08T12:16:37;92626.94;;;9.66;89.29
6204;BME280;3135;42.602;23.468;2023-04-08T12:19:02;92612.97;;;9.08;87.25
6204;BME280;3135;42.602;23.468;2023-04-08T12:21:27;92616.72;;;9.31;87.09
6204;BME280;3135;42.602;23.468;2023-04-08T12:23:53;92629.56;;;9.05;94.99
6204;BME280;3135;42.602;23.468;2023-04-08T12:26:18;92614.97;;;8.97;95.29
6204;BME280;3135;42.602;23.468;2023-04-08T12:28:44;92605.25;;;9.06;96.25
6204;BME280;3135;42.602;23.468;2023-04-08T12:31:10;92621.03;;;9.03;97.43
6204;BME280;3135;42.602;23.468;2023-04-08T12:33:36;92600.50;;;9.03;100.00
6204;BME280;3135;42.602;23.468;2023-04-08T12:36:01;92601.31;;;9.04;100.00
6204;BME280;3135;42.602;23.468;2023-04-08T12:38:27;92592.00;;;9.01;100.00
6204;BME280;3135;42.602;23.468;2023-04-08T12:40:54;92582.78;;;9.36;100.00
6204;BME280;3135;42.602;23.468;2023-04-08T12:43:19;92571.56;;;9.15;100.00
6204;BME280;3135;42.602;23.468;2023-04-08T12:45:46;92579.84;;;9.38;100.00
6204;BME280;3135;42.602;23.468;2023-04-08T12:48:12;92581.00;;;9.51;89.58
6204;BME280;3135;42.602;23.468;2023-04-08T12:50:38;92565.34;;;9.63;100.00
6204;BME280;3135;42.602;23.468;2023-04-08T12:53:03;92578.97;;;9.42;92.13
6204;BME280;3135;42.602;23.468;2023-04-08T12:55:29;92572.38;;;9.16;91.46
6204;BME280;3135;42.602;23.468;2023-04-08T12:57:54;92574.06;;;9.07;93.87
6204;BME280;3135;42.602;23.468;2023-04-08T13:00:20;92568.47;;;9.08;93.99
6204;BME280;3135;42.602;23.468;2023-04-08T13:02:46;92561.94;;;9.19;94.00
6204;BME280;3135;42.602;23.468;2023-04-08T13:05:12;92565.44;;;9.15;90.56
6204;BME280;3135;42.602;23.468;2023-04-08T13:07:37;92576.88;;;9.39;86.71
6204;BME280;3135;42.602;23.468;2023-04-08T13:10:02;92571.81;;;8.95;89.08
6204;BME280;3135;42.602;23.468;2023-04-08T13:12:28;92568.00;;;9.01;86.40
6204;BME280;3135;42.602;23.468;2023-04-08T13:14:54;92556.47;;;9.30;82.26
6204;BME280;3135;42.602;23.468;2023-04-08T13:17:20;92559.66;;;9.69;82.53
6204;BME280;3135;42.602;23.468;2023-04-08T13:19:45;92552.22;;;9.66;84.97
6204;BME280;3135;42.602;23.468;2023-04-08T13:22:15;92550.34;;;9.67;84.34
6204;BME280;3135;42.602;23.468;2023-04-08T13:24:40;92542.03;;;9.87;83.60
6204;BME280;3135;42.602;23.468;2023-04-08T13:27:07;92497.31;;;9.46;84.44
6204;BME280;3135;42.602;23.468;2023-04-08T13:29:35;92570.38;;;10.02;84.80
6204;BME280;3135;42.602;23.468;2023-04-08T13:32:06;92566.38;;;10.18;86.76
6204;BME280;3135;42.602;23.468;2023-04-08T13:34:33;92571.00;;;10.32;88.44
6204;BME280;3135;42.602;23.468;2023-04-08T13:37:00;92567.44;;;9.85;90.41